createdAt,value
2023-03-01T00:00:48.394Z,94719.00
2023-03-01T00:03:53.676Z,94712.19
2023-03-01T00:06:57.332Z,94708.44
2023-03-01T00:10:00.900Z,94712.53
2023-03-01T00:13:06.826Z,94714.34
2023-03-01T00:16:13.103Z,94710.81
2023-03-01T00:19:19.254Z,94718.72
2023-03-01T00:22:23.309Z,94721.34
2023-03-01T00:25:26.906Z,94712.78
2023-03-01T00:28:30.863Z,94713.78
2023-03-01T00:31:35.083Z,94706.16
2023-03-01T00:34:38.638Z,94712.06
2023-03-01T00:37:42.908Z,94713.19
2023-03-01T00:40:46.993Z,94705.09
2023-03-01T00:43:51.770Z,94716.69
2023-03-01T00:46:56.064Z,94724.69
2023-03-01T00:49:59.764Z,94712.63
2023-03-01T00:53:04.195Z,94713.47
2023-03-01T00:56:09.228Z,94713.22
2023-03-01T00:59:13.295Z,94713.41
2023-03-01T01:02:16.574Z,94709.28
2023-03-01T01:05:22.826Z,94712.31
2023-03-01T01:08:26.089Z,94706.44
2023-03-01T01:11:31.265Z,94715.34
2023-03-01T01:14:35.195Z,94719.94
2023-03-01T01:17:38.102Z,94723.94
2023-03-01T01:20:40.991Z,94724.91
2023-03-01T01:23:46.240Z,94721.31
2023-03-01T01:26:49.491Z,94705.09
2023-03-01T01:29:54.858Z,94699.22
2023-03-01T01:32:58.879Z,94693.44
2023-03-01T01:36:02.581Z,94695.13
2023-03-01T01:39:05.935Z,94693.63
2023-03-01T01:42:18.479Z,94698.78
2023-03-01T01:45:30.413Z,94711.59
2023-03-01T01:48:44.838Z,94708.34
2023-03-01T01:51:51.745Z,94706.94
2023-03-01T01:54:57.409Z,94715.34
2023-03-01T01:58:06.345Z,94706.84
2023-03-01T02:01:10.098Z,94692.06
2023-03-01T02:04:14.149Z,94695.03
2023-03-01T02:07:23.502Z,94694.75
2023-03-01T02:10:28.612Z,94690.41
2023-03-01T02:13:33.841Z,94692.47
2023-03-01T02:16:38.180Z,94686.00
2023-03-01T02:19:41.805Z,94683.91
2023-03-01T02:22:48.088Z,94676.78
2023-03-01T02:26:11.311Z,94674.09
2023-03-01T02:29:15.405Z,94666.47
2023-03-01T02:32:26.529Z,94660.34
2023-03-01T02:35:34.388Z,94662.84
2023-03-01T02:38:38.724Z,94652.88
2023-03-01T02:41:48.361Z,94652.47
2023-03-01T02:44:52.127Z,94648.16
2023-03-01T02:47:57.816Z,94638.88
2023-03-01T02:51:39.681Z,94631.34
2023-03-01T02:55:01.895Z,94617.50
2023-03-01T02:58:06.344Z,94601.13
2023-03-01T03:01:11.877Z,94600.94
2023-03-01T03:04:22.471Z,94600.25
2023-03-01T03:07:26.813Z,94599.84
2023-03-01T03:10:33.824Z,94600.59
2023-03-01T03:13:39.131Z,94600.72
2023-03-01T03:16:47.980Z,94588.06
2023-03-01T03:19:52.174Z,94577.25
2023-03-01T03:22:56.958Z,94576.13
2023-03-01T03:26:00.170Z,94584.16
2023-03-01T03:29:03.221Z,94576.16
2023-03-01T03:32:06.919Z,94578.03
2023-03-01T03:35:11.661Z,94568.19
2023-03-01T03:38:19.462Z,94563.50
2023-03-01T03:41:22.503Z,94545.47
2023-03-01T03:44:26.631Z,94548.13
2023-03-01T03:47:30.154Z,94546.25
2023-03-01T03:50:34.054Z,94541.00
2023-03-01T03:53:37.185Z,94545.44
2023-03-01T03:56:40.125Z,94533.28
2023-03-01T03:59:43.847Z,94532.81
2023-03-01T04:02:49.191Z,94536.78
2023-03-01T04:05:53.852Z,94518.59
2023-03-01T04:09:00.148Z,94523.63
2023-03-01T04:12:03.432Z,94517.22
2023-03-01T04:15:15.641Z,94501.69
2023-03-01T04:18:20.809Z,94493.81
2023-03-01T04:21:24.837Z,94492.78
2023-03-01T04:24:28.585Z,94482.09
2023-03-01T04:27:32.302Z,94471.47
2023-03-01T04:30:37.234Z,94475.34
2023-03-01T04:33:48.424Z,94448.34
2023-03-01T04:36:52.138Z,94454.13
2023-03-01T04:39:56.128Z,94448.16
2023-03-01T04:42:59.980Z,94447.41
2023-03-01T04:46:10.803Z,94446.75
2023-03-01T04:49:14.495Z,94440.34
2023-03-01T04:52:19.035Z,94435.81
2023-03-01T04:55:22.046Z,94434.75
2023-03-01T04:58:26.925Z,94426.91
2023-03-01T05:01:30.530Z,94402.97
2023-03-01T05:04:34.692Z,94399.91
2023-03-01T05:07:38.186Z,94394.66
2023-03-01T05:10:42.875Z,94380.47
2023-03-01T05:13:51.536Z,94379.47
2023-03-01T05:16:55.499Z,94366.28
2023-03-01T05:20:01.117Z,94378.84
2023-03-01T05:23:07.055Z,94368.06
2023-03-01T05:26:25.925Z,94360.63
2023-03-01T05:29:33.137Z,94355.66
2023-03-01T05:32:36.783Z,94354.06
2023-03-01T05:35:39.642Z,94360.63
2023-03-01T05:38:42.669Z,94354.22
2023-03-01T05:41:45.574Z,94336.59
2023-03-01T05:44:48.489Z,94342.50
2023-03-01T05:47:53.173Z,94329.44
2023-03-01T05:51:01.615Z,94325.75
2023-03-01T05:54:07.375Z,94320.72
2023-03-01T05:57:10.222Z,94313.88
2023-03-01T06:00:15.478Z,94308.59
2023-03-01T06:03:19.475Z,94299.94
2023-03-01T06:06:22.903Z,94305.66
2023-03-01T06:09:27.567Z,94301.41
2023-03-01T06:12:39.052Z,94283.75
2023-03-01T06:15:42.827Z,94297.13
2023-03-01T06:18:45.741Z,94292.94
2023-03-01T06:21:49.401Z,94268.19
2023-03-01T06:24:53.694Z,94280.97
2023-03-01T06:27:57.765Z,94275.59
2023-03-01T06:31:02.512Z,94276.22
2023-03-01T06:34:05.871Z,94253.28
2023-03-01T06:37:09.724Z,94256.91
2023-03-01T06:40:15.168Z,94252.84
2023-03-01T06:43:19.246Z,94243.72
2023-03-01T06:46:23.130Z,94229.69
2023-03-01T06:49:26.512Z,94229.63
2023-03-01T06:52:31.056Z,94219.50
2023-03-01T06:55:35.394Z,94213.09
2023-03-01T06:58:39.305Z,94203.56
2023-03-01T07:01:43.779Z,94197.47
2023-03-01T07:04:46.802Z,94200.56
2023-03-01T07:07:50.710Z,94176.41
2023-03-01T07:11:00.501Z,94172.66
2023-03-01T07:14:03.888Z,94177.00
2023-03-01T07:17:07.997Z,94167.97
2023-03-01T07:20:12.390Z,94164.19
2023-03-01T07:23:15.735Z,94164.59
2023-03-01T07:26:18.973Z,94154.44
2023-03-01T07:29:23.053Z,94134.50
2023-03-01T07:32:29.843Z,94133.41
2023-03-01T07:35:35.376Z,94129.81
2023-03-01T07:38:38.349Z,94130.56
2023-03-01T07:41:42.037Z,94128.38
2023-03-01T07:44:45.630Z,94120.69
2023-03-01T07:47:49.152Z,94116.50
2023-03-01T07:50:53.230Z,94111.22
2023-03-01T07:53:56.778Z,94110.78
2023-03-01T07:56:59.694Z,94109.06
2023-03-01T08:00:03.287Z,94118.84
2023-03-01T08:06:19.165Z,94102.84
2023-03-01T08:09:22.261Z,94103.38
2023-03-01T08:12:25.978Z,94100.00
2023-03-01T08:15:29.995Z,94095.63
2023-03-01T08:18:34.243Z,94095.50
2023-03-01T08:21:38.029Z,94078.91
2023-03-01T08:24:41.618Z,94070.63
2023-03-01T08:27:45.136Z,94061.78
2023-03-01T08:30:49.092Z,94056.88
2023-03-01T08:33:58.594Z,94052.97
2023-03-01T08:37:01.521Z,94050.72
2023-03-01T08:40:08.993Z,94048.19
2023-03-01T08:43:12.089Z,94052.25
2023-03-01T08:46:16.219Z,94043.84
2023-03-01T08:49:21.309Z,94032.44
2023-03-01T08:52:26.365Z,94024.75
2023-03-01T08:55:30.055Z,94015.22
2023-03-01T08:58:33.009Z,94015.84
2023-03-01T09:01:37.924Z,94009.63
2023-03-01T09:04:42.202Z,94005.00
2023-03-01T09:07:45.778Z,93994.34
2023-03-01T09:10:49.934Z,93987.06
2023-03-01T09:13:53.385Z,93990.72
2023-03-01T09:16:57.491Z,93982.78
2023-03-01T09:20:01.559Z,93975.09
2023-03-01T09:23:04.662Z,93970.84
2023-03-01T09:26:12.904Z,93965.97
2023-03-01T09:29:17.298Z,93971.69
2023-03-01T09:32:20.356Z,93961.94
2023-03-01T09:35:25.476Z,93955.38
2023-03-01T09:38:29.571Z,93954.53
2023-03-01T09:42:01.958Z,93959.91
2023-03-01T09:45:15.118Z,93953.53
2023-03-01T09:48:25.417Z,93946.66
2023-03-01T09:51:34.792Z,93952.81
2023-03-01T09:54:38.196Z,93938.59
2023-03-01T09:57:52.550Z,93936.06
2023-03-01T10:01:00.963Z,93937.19
2023-03-01T10:04:22.969Z,93931.69
2023-03-01T10:07:35.123Z,93921.38
2023-03-01T10:10:46.236Z,93924.72
2023-03-01T10:13:56.561Z,93919.66
2023-03-01T10:17:04.300Z,93917.78
2023-03-01T10:20:48.328Z,93907.59
2023-03-01T10:23:55.211Z,93902.09
2023-03-01T10:27:04.126Z,93904.25
2023-03-01T10:30:22.574Z,93901.59
2023-03-01T10:33:34.370Z,93892.91
2023-03-01T10:36:41.310Z,93862.56
2023-03-01T10:39:58.567Z,93864.22
2023-03-01T10:43:05.445Z,93848.28
2023-03-01T10:46:26.925Z,93847.91
2023-03-01T10:49:30.587Z,93852.91
2023-03-01T10:52:39.263Z,93852.13
2023-03-01T10:55:42.869Z,93853.19
2023-03-01T10:59:03.381Z,93847.59
2023-03-01T11:02:25.383Z,93842.84
2023-03-01T11:05:35.362Z,93835.91
2023-03-01T11:08:45.958Z,93823.91
2023-03-01T11:11:55.043Z,93833.25
2023-03-01T11:14:59.376Z,93818.06
2023-03-01T11:18:13.503Z,93811.31
2023-03-01T11:21:18.861Z,93813.72
2023-03-01T11:24:33.173Z,93816.25
2023-03-01T11:27:44.919Z,93812.63
2023-03-01T11:31:07.795Z,93798.34
2023-03-01T11:34:17.954Z,93796.47
2023-03-01T11:37:43.769Z,93791.34
2023-03-01T11:41:01.061Z,93791.63
2023-03-01T11:44:21.790Z,93790.34
2023-03-01T11:47:34.175Z,93789.22
2023-03-01T11:50:50.483Z,93789.09
2023-03-01T11:53:57.160Z,93784.09
2023-03-01T11:58:00.299Z,93772.34
2023-03-01T12:01:28.179Z,93766.47
2023-03-01T12:04:44.259Z,93763.38
2023-03-01T12:08:25.276Z,93754.66
2023-03-01T12:11:46.526Z,93754.72
2023-03-01T12:15:11.616Z,93735.88
2023-03-01T12:18:44.479Z,93719.72
2023-03-01T12:21:47.701Z,93711.78
2023-03-01T12:25:14.274Z,93698.44
2023-03-01T12:28:38.623Z,93706.59
2023-03-01T12:31:50.806Z,93702.00
2023-03-01T12:35:14.113Z,93688.72
2023-03-01T12:38:27.091Z,93681.47
2023-03-01T12:42:03.485Z,93678.44
2023-03-01T12:45:37.237Z,93681.66
2023-03-01T12:49:11.729Z,93666.84
2023-03-01T12:52:26.174Z,93647.59
2023-03-01T12:55:40.887Z,93649.16
2023-03-01T12:59:08.721Z,93641.47
2023-03-01T13:02:28.277Z,93635.38
2023-03-01T13:05:54.769Z,93623.16
2023-03-01T13:09:32.625Z,93616.19
2023-03-01T13:12:51.199Z,93616.28
2023-03-01T13:15:55.503Z,93617.38
2023-03-01T13:19:30.770Z,93597.97
2023-03-01T13:22:39.717Z,93595.13
2023-03-01T13:26:06.086Z,93589.72
2023-03-01T13:29:28.819Z,93592.13
2023-03-01T13:32:43.652Z,93600.69
2023-03-01T13:35:48.449Z,93597.69
2023-03-01T13:39:16.812Z,93594.50
2023-03-01T13:42:53.608Z,93584.53
2023-03-01T13:46:11.240Z,93584.97
2023-03-01T13:49:18.845Z,93580.72
2023-03-01T13:52:42.071Z,93577.84
2023-03-01T13:55:57.312Z,93559.88
2023-03-01T13:59:06.365Z,93554.56
2023-03-01T14:02:14.810Z,93554.25
2023-03-01T14:05:18.482Z,93553.56
2023-03-01T14:08:26.449Z,93550.66
2023-03-01T14:11:44.902Z,93544.50
2023-03-01T14:14:54.601Z,93548.44
2023-03-01T14:18:23.193Z,93542.00
2023-03-01T14:21:28.266Z,93531.19
2023-03-01T14:24:34.702Z,93524.63
2023-03-01T14:27:46.528Z,93523.75
2023-03-01T14:30:53.034Z,93518.63
2023-03-01T14:33:59.437Z,93512.00
2023-03-01T14:37:32.903Z,93508.28
2023-03-01T14:40:39.273Z,93511.44
2023-03-01T14:43:49.243Z,93511.41
2023-03-01T14:46:58.968Z,93510.34
2023-03-01T14:50:23.896Z,93504.63
2023-03-01T14:53:34.062Z,93502.56
2023-03-01T14:56:48.873Z,93504.47
2023-03-01T14:59:59.479Z,93503.06
2023-03-01T15:03:33.085Z,93505.25
2023-03-01T15:06:37.231Z,93506.78
2023-03-01T15:09:42.524Z,93495.66
2023-03-01T15:12:45.832Z,93480.69
2023-03-01T15:15:49.953Z,93495.38
2023-03-01T15:19:05.079Z,93486.50
2023-03-01T15:22:17.491Z,93466.31
2023-03-01T15:25:23.506Z,93449.81
2023-03-01T15:28:35.272Z,93445.13
2023-03-01T15:31:40.672Z,93442.56
2023-03-01T15:34:44.337Z,93425.03
2023-03-01T15:37:50.280Z,93429.09
2023-03-01T15:40:54.670Z,93420.00
2023-03-01T15:43:59.951Z,93435.94
2023-03-01T15:47:25.476Z,93419.72
2023-03-01T15:50:37.886Z,93418.38
2023-03-01T15:53:52.781Z,93415.50
2023-03-01T15:56:57.556Z,93409.69
2023-03-01T16:00:01.305Z,93402.50
2023-03-01T16:03:11.013Z,93397.19
2023-03-01T16:06:15.214Z,93384.72
2023-03-01T16:09:19.552Z,93380.88
2023-03-01T16:12:23.338Z,93383.09
2023-03-01T16:15:32.826Z,93381.75
2023-03-01T16:18:36.084Z,93392.66
2023-03-01T16:21:40.461Z,93395.22
2023-03-01T16:24:43.428Z,93399.19
2023-03-01T16:27:52.226Z,93396.69
2023-03-01T16:30:55.279Z,93398.19
2023-03-01T16:34:01.511Z,93396.03
2023-03-01T16:37:05.184Z,93394.94
2023-03-01T16:40:33.217Z,93395.25
2023-03-01T16:43:37.233Z,93394.81
2023-03-01T16:46:44.804Z,93401.59
2023-03-01T16:49:48.528Z,93397.88
2023-03-01T16:52:52.973Z,93397.53
2023-03-01T16:56:00.635Z,93394.66
2023-03-01T16:59:06.409Z,93389.94
2023-03-01T17:02:14.106Z,93388.38
2023-03-01T17:05:18.020Z,93407.38
2023-03-01T17:08:20.970Z,93402.66
2023-03-01T17:11:24.706Z,93402.66
2023-03-01T17:14:28.378Z,93390.38
2023-03-01T17:17:32.472Z,93391.06
2023-03-01T17:20:36.385Z,93394.63
2023-03-01T17:23:44.217Z,93393.47
2023-03-01T17:26:47.697Z,93398.59
2023-03-01T17:29:51.359Z,93395.31
2023-03-01T17:32:56.363Z,93397.56
2023-03-01T17:36:00.898Z,93398.63
2023-03-01T17:39:05.042Z,93397.09
2023-03-01T17:42:08.720Z,93401.03
2023-03-01T17:45:12.798Z,93395.63
2023-03-01T17:48:17.800Z,93386.66
2023-03-01T17:51:22.089Z,93401.13
2023-03-01T17:54:25.724Z,93392.75
2023-03-01T17:57:29.365Z,93389.88
2023-03-01T18:00:33.191Z,93395.25
2023-03-01T18:03:36.900Z,93394.91
2023-03-01T18:06:41.467Z,93394.19
2023-03-01T18:09:44.890Z,93393.91
2023-03-01T18:12:48.518Z,93405.19
2023-03-01T18:15:51.813Z,93404.50
2023-03-01T18:18:56.347Z,93398.72
2023-03-01T18:22:00.349Z,93404.47
2023-03-01T18:25:03.224Z,93410.25
2023-03-01T18:28:06.523Z,93403.75
2023-03-01T18:31:13.693Z,93404.50
2023-03-01T18:34:17.020Z,93403.03
2023-03-01T18:37:19.945Z,93389.31
2023-03-01T18:40:23.802Z,93391.78
2023-03-01T18:43:29.415Z,93389.22
2023-03-01T18:46:36.112Z,93395.72
2023-03-01T18:49:41.342Z,93389.16
2023-03-01T18:52:45.034Z,93389.91
2023-03-01T18:55:49.008Z,93391.34
2023-03-01T18:58:52.048Z,93387.69
2023-03-01T19:01:55.085Z,93395.66
2023-03-01T19:04:59.118Z,93391.34
2023-03-01T19:08:02.827Z,93392.09
2023-03-01T19:11:07.280Z,93388.81
2023-03-01T19:14:11.311Z,93383.72
2023-03-01T19:17:14.713Z,93387.66
2023-03-01T19:20:18.292Z,93376.09
2023-03-01T19:23:21.051Z,93381.06
2023-03-01T19:26:26.611Z,93380.34
2023-03-01T19:29:29.879Z,93380.31
2023-03-01T19:32:34.996Z,93376.69
2023-03-01T19:35:38.840Z,93379.88
2023-03-01T19:38:43.919Z,93367.91
2023-03-01T19:41:49.689Z,93378.03
2023-03-01T19:44:53.232Z,93370.78
2023-03-01T19:47:57.732Z,93360.38
2023-03-01T19:51:01.673Z,93367.59
2023-03-01T19:54:06.579Z,93361.91
2023-03-01T19:57:09.508Z,93364.84
2023-03-01T20:00:13.528Z,93369.59
2023-03-01T20:03:17.552Z,93369.28
2023-03-01T20:06:22.472Z,93376.63
2023-03-01T20:09:26.012Z,93379.91
2023-03-01T20:12:29.459Z,93381.78
2023-03-01T20:15:33.106Z,93375.69
2023-03-01T20:18:36.640Z,93382.22
2023-03-01T20:21:40.399Z,93378.59
2023-03-01T20:24:44.267Z,93369.91
2023-03-01T20:27:47.992Z,93370.63
2023-03-01T20:30:51.014Z,93373.78
2023-03-01T20:33:58.625Z,93375.88
2023-03-01T20:37:01.576Z,93373.34
2023-03-01T20:40:05.002Z,93367.88
2023-03-01T20:43:08.024Z,93364.94
2023-03-01T20:46:13.691Z,93366.69
2023-03-01T20:49:17.819Z,93370.91
2023-03-01T20:52:21.473Z,93367.53
2023-03-01T20:55:25.458Z,93366.31
2023-03-01T20:58:33.194Z,93371.72
2023-03-01T21:01:39.581Z,93374.69
2023-03-01T21:04:42.543Z,93366.41
2023-03-01T21:07:47.978Z,93371.91
2023-03-01T21:10:54.942Z,93369.00
2023-03-01T21:13:58.673Z,93371.59
2023-03-01T21:17:01.609Z,93369.84
2023-03-01T21:20:06.543Z,93362.63
2023-03-01T21:23:09.522Z,93370.97
2023-03-01T21:26:17.775Z,93373.34
2023-03-01T21:29:21.552Z,93370.41
2023-03-01T21:32:25.023Z,93379.84
2023-03-01T21:35:28.047Z,93396.44
2023-03-01T21:38:36.408Z,93394.94
2023-03-01T21:41:40.147Z,93393.84
2023-03-01T21:44:43.729Z,93396.03
2023-03-01T21:47:47.274Z,93400.38
2023-03-01T21:50:59.471Z,93405.41
2023-03-01T21:54:03.230Z,93400.06
2023-03-01T21:57:06.532Z,93405.59
2023-03-01T22:00:13.530Z,93410.03
2023-03-01T22:03:17.306Z,93416.81
2023-03-01T22:06:25.414Z,93418.19
2023-03-01T22:09:29.647Z,93421.41
2023-03-01T22:12:32.556Z,93418.13
2023-03-01T22:15:35.508Z,93417.03
2023-03-01T22:18:38.448Z,93412.03
2023-03-01T22:21:43.746Z,93400.50
2023-03-01T22:24:46.704Z,93396.13
2023-03-01T22:27:49.823Z,93406.97
2023-03-01T22:30:53.078Z,93400.44
2023-03-01T22:33:57.350Z,93409.13
2023-03-01T22:37:25.324Z,93400.88
2023-03-01T22:40:29.082Z,93412.50
2023-03-01T22:43:33.515Z,93411.06
2023-03-01T22:46:36.449Z,93416.44
2023-03-01T22:49:39.383Z,93417.91
2023-03-01T22:52:42.534Z,93427.31
2023-03-01T22:55:45.884Z,93418.78
2023-03-01T22:58:49.476Z,93427.63
2023-03-01T23:01:55.037Z,93429.22
2023-03-01T23:04:58.183Z,93438.72
2023-03-01T23:08:01.154Z,93455.41
2023-03-01T23:11:04.998Z,93451.19
2023-03-01T23:14:07.827Z,93450.13
2023-03-01T23:17:11.983Z,93446.59
2023-03-01T23:20:15.258Z,93454.56
2023-03-01T23:23:18.499Z,93457.81
2023-03-01T23:26:22.848Z,93469.13
2023-03-01T23:29:26.116Z,93467.06
2023-03-01T23:32:29.808Z,93469.28
2023-03-01T23:35:33.041Z,93459.56
2023-03-01T23:38:35.999Z,93468.75
2023-03-01T23:41:39.839Z,93467.75
2023-03-01T23:44:46.494Z,93472.19
2023-03-01T23:47:50.448Z,93468.63
2023-03-01T23:50:53.351Z,93470.53
2023-03-01T23:54:00.934Z,93480.38
2023-03-01T23:57:04.051Z,93477.19
